createdAt,value
2023-03-30T00:00:59.454Z,14.31
2023-03-30T00:03:27.482Z,14.32
2023-03-30T00:05:57.980Z,14.35
2023-03-30T00:08:29.366Z,14.37
2023-03-30T00:11:13.307Z,14.35
2023-03-30T00:13:40.298Z,14.33
2023-03-30T00:16:09.396Z,14.36
2023-03-30T00:18:36.696Z,14.35
2023-03-30T00:21:04.705Z,14.35
2023-03-30T00:23:32.309Z,14.37
2023-03-30T00:25:59.281Z,14.37
2023-03-30T00:28:26.291Z,14.33
2023-03-30T00:30:53.696Z,14.32
2023-03-30T00:33:30.338Z,14.33
2023-03-30T00:36:00.506Z,14.34
2023-03-30T00:38:27.234Z,14.37
2023-03-30T00:40:59.552Z,14.41
2023-03-30T00:43:26.683Z,14.47
2023-03-30T00:45:53.309Z,14.55
2023-03-30T00:48:46.247Z,14.56
2023-03-30T00:51:13.928Z,14.58
2023-03-30T00:53:47.665Z,14.54
2023-03-30T00:56:17.431Z,14.53
2023-03-30T00:58:45.227Z,14.54
2023-03-30T01:01:18.383Z,14.54
2023-03-30T01:03:50.624Z,14.55
2023-03-30T01:06:21.738Z,14.57
2023-03-30T01:08:49.177Z,14.60
2023-03-30T01:11:15.622Z,14.56
2023-03-30T01:13:46.768Z,14.57
2023-03-30T01:16:25.300Z,14.55
2023-03-30T01:19:36.526Z,14.55
2023-03-30T01:22:30.952Z,14.61
2023-03-30T01:25:18.240Z,14.66
2023-03-30T01:28:08.750Z,14.66
2023-03-30T01:31:03.273Z,14.70
2023-03-30T01:34:03.670Z,14.77
2023-03-30T01:36:45.609Z,14.81
2023-03-30T01:39:28.855Z,14.88
2023-03-30T01:42:19.055Z,14.91
2023-03-30T01:45:00.105Z,14.96
2023-03-30T01:47:36.610Z,15.01
2023-03-30T01:50:02.929Z,15.01
2023-03-30T01:52:43.825Z,15.10
2023-03-30T01:55:17.200Z,15.14
2023-03-30T01:57:59.502Z,15.14
2023-03-30T02:00:27.775Z,15.15
2023-03-30T02:03:02.538Z,15.17
2023-03-30T02:05:30.716Z,15.18
2023-03-30T02:08:14.245Z,15.22
2023-03-30T02:10:43.634Z,15.26
2023-03-30T02:13:11.462Z,15.22
2023-03-30T02:15:41.739Z,15.22
2023-03-30T02:18:08.589Z,15.21
2023-03-30T02:20:35.755Z,15.23
2023-03-30T02:23:03.600Z,15.22
2023-03-30T02:25:29.956Z,15.29
2023-03-30T02:27:56.371Z,15.31
2023-03-30T02:30:22.839Z,15.23
2023-03-30T02:32:53.337Z,15.27
2023-03-30T02:35:22.106Z,15.25
2023-03-30T02:38:09.916Z,15.32
2023-03-30T02:40:58.181Z,15.29
2023-03-30T02:44:01.885Z,15.27
2023-03-30T02:46:40.314Z,15.32
2023-03-30T02:49:06.828Z,15.34
2023-03-30T02:51:45.555Z,15.37
2023-03-30T02:54:46.937Z,15.37
2023-03-30T02:57:45.030Z,15.41
2023-03-30T03:00:18.719Z,15.41
2023-03-30T03:02:52.594Z,15.46
2023-03-30T03:05:20.181Z,15.48
2023-03-30T03:07:48.065Z,15.56
2023-03-30T03:10:14.919Z,15.59
2023-03-30T03:12:44.368Z,15.62
2023-03-30T03:15:12.384Z,15.63
2023-03-30T03:17:39.078Z,15.67
2023-03-30T03:20:08.172Z,15.66
2023-03-30T03:22:34.545Z,15.69
2023-03-30T03:25:02.391Z,15.58
2023-03-30T03:27:28.832Z,15.55
2023-03-30T03:29:55.159Z,15.51
2023-03-30T03:32:21.739Z,15.50
2023-03-30T03:34:48.378Z,15.49
2023-03-30T03:37:14.815Z,15.55
2023-03-30T03:39:41.698Z,15.58
2023-03-30T03:42:08.169Z,15.62
2023-03-30T03:44:34.590Z,15.62
2023-03-30T03:47:01.147Z,15.58
2023-03-30T03:49:27.717Z,15.61
2023-03-30T03:51:54.155Z,15.60
2023-03-30T03:54:20.653Z,15.51
2023-03-30T03:56:47.202Z,15.44
2023-03-30T03:59:13.623Z,15.41
2023-03-30T04:01:39.969Z,15.36
2023-03-30T04:04:06.856Z,15.30
2023-03-30T04:06:33.233Z,15.32
2023-03-30T04:09:01.097Z,15.33
2023-03-30T04:11:27.670Z,15.25
2023-03-30T04:13:54.090Z,15.30
2023-03-30T04:16:20.442Z,15.33
2023-03-30T04:18:47.025Z,15.30
2023-03-30T04:21:13.515Z,15.27
2023-03-30T04:23:39.988Z,15.22
2023-03-30T04:26:08.020Z,15.26
2023-03-30T04:28:35.533Z,15.31
2023-03-30T04:31:05.300Z,15.29
2023-03-30T04:33:35.028Z,15.31
2023-03-30T04:36:01.799Z,15.28
2023-03-30T04:38:29.955Z,15.30
2023-03-30T04:40:56.868Z,15.33
2023-03-30T04:43:24.014Z,15.31
2023-03-30T04:45:55.442Z,15.31
2023-03-30T04:48:23.706Z,15.34
2023-03-30T04:50:51.636Z,15.33
2023-03-30T04:53:18.932Z,15.33
2023-03-30T04:55:50.679Z,15.31
2023-03-30T04:58:17.588Z,15.30
2023-03-30T05:00:43.981Z,15.35
2023-03-30T05:03:10.867Z,15.27
2023-03-30T05:05:37.544Z,15.24
2023-03-30T05:08:05.061Z,15.29
2023-03-30T05:10:31.545Z,15.30
2023-03-30T05:12:57.854Z,15.38
2023-03-30T05:15:24.247Z,15.37
2023-03-30T05:17:50.971Z,15.42
2023-03-30T05:20:18.223Z,15.39
2023-03-30T05:22:46.817Z,15.38
2023-03-30T05:25:13.325Z,15.40
2023-03-30T05:27:39.821Z,15.47
2023-03-30T05:30:08.190Z,15.45
2023-03-30T05:32:34.844Z,15.39
2023-03-30T05:35:01.321Z,15.38
2023-03-30T05:37:27.850Z,15.37
2023-03-30T05:39:54.193Z,15.44
2023-03-30T05:42:21.596Z,15.45
2023-03-30T05:44:47.994Z,15.41
2023-03-30T05:47:14.563Z,15.44
2023-03-30T05:49:41.009Z,15.43
2023-03-30T05:52:07.336Z,15.41
2023-03-30T05:54:33.869Z,15.42
2023-03-30T05:57:00.914Z,15.39
2023-03-30T05:59:27.294Z,15.43
2023-03-30T06:01:54.143Z,15.47
2023-03-30T06:04:20.733Z,15.49
2023-03-30T06:06:47.197Z,15.47
2023-03-30T06:09:13.602Z,15.52
2023-03-30T06:11:40.088Z,15.56
2023-03-30T06:14:06.396Z,15.55
2023-03-30T06:16:32.858Z,15.59
2023-03-30T06:18:59.212Z,15.58
2023-03-30T06:21:25.698Z,15.59
2023-03-30T06:23:52.416Z,15.65
2023-03-30T06:26:18.892Z,15.67
2023-03-30T06:28:45.244Z,15.71
2023-03-30T06:31:12.324Z,15.72
2023-03-30T06:33:41.569Z,15.66
2023-03-30T06:36:13.897Z,15.66
2023-03-30T06:38:41.093Z,15.62
2023-03-30T06:41:10.008Z,15.65
2023-03-30T06:43:36.871Z,15.71
2023-03-30T06:46:04.263Z,15.71
2023-03-30T06:48:30.714Z,15.70
2023-03-30T06:50:57.865Z,15.69
2023-03-30T06:53:24.280Z,15.73
2023-03-30T06:55:56.880Z,15.71
2023-03-30T06:58:24.902Z,15.69
2023-03-30T07:00:51.608Z,15.69
2023-03-30T07:03:21.321Z,15.77
2023-03-30T07:05:48.881Z,15.77
2023-03-30T07:08:15.627Z,15.81
2023-03-30T07:10:42.973Z,15.82
2023-03-30T07:13:09.990Z,15.79
2023-03-30T07:15:36.759Z,15.75
2023-03-30T07:18:03.899Z,15.73
2023-03-30T07:20:30.386Z,15.79
2023-03-30T07:22:56.686Z,15.84
2023-03-30T07:25:23.283Z,15.93
2023-03-30T07:27:49.691Z,16.03
2023-03-30T07:30:21.794Z,16.13
2023-03-30T07:32:50.825Z,16.15
2023-03-30T07:35:17.788Z,16.12
2023-03-30T07:37:44.241Z,16.22
2023-03-30T07:40:11.932Z,16.23
2023-03-30T07:42:38.532Z,16.26
2023-03-30T07:45:05.340Z,16.24
2023-03-30T07:47:31.754Z,16.21
2023-03-30T07:49:58.274Z,16.25
2023-03-30T07:52:25.852Z,16.23
2023-03-30T07:54:52.648Z,16.23
2023-03-30T07:57:19.110Z,16.22
2023-03-30T07:59:45.886Z,16.24
2023-03-30T08:02:14.271Z,16.23
2023-03-30T08:04:44.429Z,16.28
2023-03-30T08:07:11.646Z,16.32
2023-03-30T08:09:38.057Z,16.38
2023-03-30T08:12:04.481Z,16.33
2023-03-30T08:14:31.020Z,16.30
2023-03-30T08:16:57.387Z,16.32
2023-03-30T08:19:25.059Z,16.34
2023-03-30T08:21:51.437Z,16.38
2023-03-30T08:24:17.774Z,16.42
2023-03-30T08:26:44.155Z,16.44
2023-03-30T08:29:11.204Z,16.42
2023-03-30T08:31:38.495Z,16.36
2023-03-30T08:34:06.394Z,16.37
2023-03-30T08:36:32.959Z,16.36
2023-03-30T08:39:00.203Z,16.33
2023-03-30T08:41:29.551Z,16.29
2023-03-30T08:44:01.035Z,16.31
2023-03-30T08:46:30.422Z,16.29
2023-03-30T08:49:01.103Z,16.34
2023-03-30T08:51:29.233Z,16.58
2023-03-30T08:53:58.240Z,16.51
2023-03-30T08:56:30.653Z,16.47
2023-03-30T08:59:26.481Z,16.39
2023-03-30T09:02:08.493Z,16.35
2023-03-30T09:05:13.539Z,16.32
2023-03-30T09:07:48.923Z,16.24
2023-03-30T09:10:16.321Z,16.14
2023-03-30T09:12:47.653Z,16.05
2023-03-30T09:16:02.352Z,15.92
2023-03-30T09:18:32.206Z,15.53
2023-03-30T09:21:01.411Z,15.03
2023-03-30T09:23:30.984Z,14.76
2023-03-30T09:26:19.065Z,14.59
2023-03-30T09:29:03.757Z,14.54
2023-03-30T09:31:41.147Z,14.57
2023-03-30T09:34:37.991Z,14.56
2023-03-30T09:37:12.497Z,14.61
2023-03-30T09:39:41.048Z,14.53
2023-03-30T09:42:27.963Z,14.46
2023-03-30T09:45:19.529Z,14.32
2023-03-30T09:47:46.562Z,13.96
2023-03-30T09:50:24.323Z,13.63
2023-03-30T09:53:03.351Z,13.37
2023-03-30T09:55:35.362Z,13.22
2023-03-30T09:58:10.920Z,13.07
2023-03-30T10:00:37.823Z,12.94
2023-03-30T10:03:07.323Z,12.57
2023-03-30T10:05:36.416Z,12.34
2023-03-30T10:08:19.495Z,12.20
2023-03-30T10:10:45.987Z,12.15
2023-03-30T10:13:16.846Z,12.06
2023-03-30T10:15:47.000Z,11.95
2023-03-30T10:18:27.598Z,12.06
2023-03-30T10:21:14.955Z,12.23
2023-03-30T10:23:44.708Z,12.41
2023-03-30T10:26:19.513Z,12.46
2023-03-30T10:29:18.182Z,12.55
2023-03-30T10:31:47.343Z,12.67
2023-03-30T10:34:44.619Z,12.76
2023-03-30T10:37:26.559Z,12.83
2023-03-30T10:39:54.736Z,12.80
2023-03-30T10:42:25.178Z,12.79
2023-03-30T10:44:59.517Z,12.81
2023-03-30T10:47:34.935Z,12.98
2023-03-30T10:50:22.577Z,13.09
2023-03-30T10:53:14.005Z,13.25
2023-03-30T10:55:49.921Z,13.46
2023-03-30T10:58:37.643Z,13.68
2023-03-30T11:01:29.412Z,13.81
2023-03-30T11:04:16.242Z,13.86
2023-03-30T11:06:53.052Z,13.98
2023-03-30T11:09:24.409Z,13.99
2023-03-30T11:12:16.566Z,14.25
2023-03-30T11:14:51.665Z,14.44
2023-03-30T11:17:33.971Z,14.80
2023-03-30T11:20:23.696Z,14.93
2023-03-30T11:23:11.865Z,15.10
2023-03-30T11:25:53.264Z,15.10
2023-03-30T11:28:31.613Z,15.15
2023-03-30T11:31:03.113Z,15.05
2023-03-30T11:33:38.823Z,14.97
2023-03-30T11:36:18.696Z,14.93
2023-03-30T11:38:54.295Z,14.98
2023-03-30T11:41:28.736Z,15.00
2023-03-30T11:43:56.150Z,14.98
2023-03-30T11:46:27.913Z,15.05
2023-03-30T11:49:13.479Z,15.23
2023-03-30T11:51:45.988Z,15.47
2023-03-30T11:54:30.714Z,15.66
2023-03-30T11:57:40.192Z,15.95
2023-03-30T12:00:32.459Z,16.26
2023-03-30T12:03:16.879Z,16.32
2023-03-30T12:05:53.175Z,16.38
2023-03-30T12:08:35.798Z,16.38
2023-03-30T12:11:11.626Z,16.42
2023-03-30T12:13:50.290Z,16.43
2023-03-30T12:16:23.231Z,16.40
2023-03-30T12:19:15.427Z,16.46
2023-03-30T12:22:01.187Z,16.41
2023-03-30T12:24:41.907Z,16.43
2023-03-30T12:27:11.801Z,16.68
2023-03-30T12:30:01.765Z,16.91
2023-03-30T12:32:30.462Z,17.10
2023-03-30T12:34:58.039Z,17.31
2023-03-30T12:37:34.554Z,17.51
2023-03-30T12:40:08.662Z,17.34
2023-03-30T12:42:46.139Z,17.13
2023-03-30T12:45:23.577Z,16.75
2023-03-30T12:48:14.271Z,16.46
2023-03-30T12:50:54.331Z,16.21
2023-03-30T12:53:56.094Z,16.09
2023-03-30T12:56:26.143Z,16.02
2023-03-30T12:59:20.862Z,16.13
2023-03-30T13:02:35.512Z,16.05
2023-03-30T13:05:03.036Z,16.02
2023-03-30T13:07:36.311Z,15.94
2023-03-30T13:10:25.271Z,15.79
2023-03-30T13:12:51.764Z,15.78
2023-03-30T13:15:39.089Z,15.67
2023-03-30T13:18:26.360Z,15.33
2023-03-30T13:20:56.064Z,15.23
2023-03-30T13:23:22.482Z,15.13
2023-03-30T13:25:49.667Z,14.80
2023-03-30T13:28:35.022Z,14.53
2023-03-30T13:31:27.364Z,14.35
2023-03-30T13:34:09.921Z,14.32
2023-03-30T13:36:48.349Z,14.39
2023-03-30T13:39:27.588Z,14.44
2023-03-30T13:42:16.268Z,14.40
2023-03-30T13:44:49.304Z,14.27
2023-03-30T13:47:21.821Z,14.07
2023-03-30T13:49:57.242Z,13.89
2023-03-30T13:52:40.986Z,13.67
2023-03-30T13:55:18.937Z,13.39
2023-03-30T13:57:45.394Z,13.16
2023-03-30T14:00:39.672Z,13.35
2023-03-30T14:03:38.368Z,14.77
2023-03-30T14:06:07.708Z,15.77
2023-03-30T14:08:37.776Z,16.41
2023-03-30T14:11:11.124Z,16.94
2023-03-30T14:13:38.103Z,17.61
2023-03-30T14:16:06.715Z,18.10
2023-03-30T14:18:33.829Z,18.66
2023-03-30T14:21:03.936Z,18.62
2023-03-30T14:23:36.734Z,18.97
2023-03-30T14:26:11.871Z,19.52
2023-03-30T14:28:38.678Z,19.98
2023-03-30T14:31:21.007Z,20.16
2023-03-30T14:33:47.873Z,20.16
2023-03-30T14:36:16.814Z,20.30
2023-03-30T14:38:49.322Z,20.18
2023-03-30T14:41:24.948Z,20.11
2023-03-30T14:44:04.936Z,20.52
2023-03-30T14:46:46.973Z,20.87
2023-03-30T14:49:23.700Z,19.98
2023-03-30T14:51:52.505Z,19.33
2023-03-30T14:54:22.716Z,19.41
2023-03-30T14:57:04.923Z,19.43
2023-03-30T14:59:36.222Z,19.77
2023-03-30T15:02:04.913Z,19.65
2023-03-30T15:04:38.355Z,19.81
2023-03-30T15:07:05.311Z,19.26
2023-03-30T15:09:38.634Z,19.67
2023-03-30T15:12:05.928Z,20.11
2023-03-30T15:14:39.324Z,20.26
2023-03-30T15:17:20.848Z,20.14
2023-03-30T15:19:49.826Z,19.91
2023-03-30T15:22:44.136Z,19.99
2023-03-30T15:25:17.993Z,20.25
2023-03-30T15:27:51.662Z,19.99
2023-03-30T15:30:30.209Z,19.61
2023-03-30T15:32:57.239Z,19.20
2023-03-30T15:35:28.136Z,18.91
2023-03-30T15:38:13.611Z,18.63
2023-03-30T15:40:45.572Z,18.65
2023-03-30T15:43:18.090Z,18.62
2023-03-30T15:45:48.733Z,18.90
2023-03-30T15:48:18.492Z,19.01
2023-03-30T15:50:49.640Z,18.82
2023-03-30T15:53:27.718Z,18.46
2023-03-30T15:55:54.187Z,18.31
2023-03-30T15:58:26.017Z,17.96
2023-03-30T16:00:53.152Z,17.75
2023-03-30T16:03:33.153Z,17.62
2023-03-30T16:05:59.489Z,17.79
2023-03-30T16:08:26.402Z,17.84
2023-03-30T16:10:53.005Z,17.65
2023-03-30T16:13:19.462Z,17.53
2023-03-30T16:15:46.110Z,17.50
2023-03-30T16:18:12.614Z,17.51
2023-03-30T16:20:39.110Z,17.48
2023-03-30T16:23:05.472Z,17.51
2023-03-30T16:25:44.208Z,17.51
2023-03-30T16:28:17.625Z,17.40
2023-03-30T16:30:46.769Z,17.37
2023-03-30T16:33:13.279Z,17.33
2023-03-30T16:35:41.236Z,17.36
2023-03-30T16:38:09.905Z,17.25
2023-03-30T16:40:42.221Z,17.25
2023-03-30T16:43:09.456Z,17.33
2023-03-30T16:45:36.107Z,17.27
2023-03-30T16:48:02.735Z,17.13
2023-03-30T16:50:40.822Z,16.95
2023-03-30T16:53:08.776Z,16.90
2023-03-30T16:55:36.340Z,16.80
2023-03-30T16:58:03.821Z,16.60
2023-03-30T17:00:35.965Z,16.43
2023-03-30T17:03:02.311Z,16.33
2023-03-30T17:05:29.999Z,16.18
2023-03-30T17:07:56.587Z,16.14
2023-03-30T17:10:29.267Z,16.13
2023-03-30T17:12:56.097Z,16.10
2023-03-30T17:15:24.482Z,16.14
2023-03-30T17:17:52.287Z,16.17
2023-03-30T17:20:23.380Z,16.08
2023-03-30T17:22:50.792Z,15.95
2023-03-30T17:25:20.677Z,15.98
2023-03-30T17:27:48.834Z,15.92
2023-03-30T17:30:25.227Z,15.89
2023-03-30T17:32:52.351Z,15.90
2023-03-30T17:35:18.865Z,15.82
2023-03-30T17:37:45.719Z,15.84
2023-03-30T17:40:21.518Z,15.76
2023-03-30T17:42:48.690Z,15.74
2023-03-30T17:45:18.082Z,15.73
2023-03-30T17:47:45.475Z,15.65
2023-03-30T17:50:28.053Z,15.55
2023-03-30T17:52:55.958Z,15.52
2023-03-30T17:55:25.130Z,15.47
2023-03-30T17:57:52.003Z,15.47
2023-03-30T18:00:21.465Z,15.47
2023-03-30T18:02:48.639Z,15.43
2023-03-30T18:05:15.895Z,15.45
2023-03-30T18:07:42.622Z,15.47
2023-03-30T18:10:15.205Z,15.50
2023-03-30T18:12:41.591Z,15.54
2023-03-30T18:15:08.260Z,15.57
2023-03-30T18:17:34.633Z,15.51
2023-03-30T18:20:01.560Z,15.57
2023-03-30T18:22:27.960Z,15.47
2023-03-30T18:24:54.352Z,15.49
2023-03-30T18:27:20.998Z,15.52
2023-03-30T18:29:47.309Z,15.50
2023-03-30T18:32:13.608Z,15.44
2023-03-30T18:34:39.949Z,15.44
2023-03-30T18:37:06.269Z,15.43
2023-03-30T18:39:32.630Z,15.34
2023-03-30T18:41:59.000Z,15.36
2023-03-30T18:44:25.544Z,15.35
2023-03-30T18:46:52.290Z,15.27
2023-03-30T18:49:21.198Z,15.27
2023-03-30T18:51:47.521Z,15.30
2023-03-30T18:54:13.858Z,15.24
2023-03-30T18:56:40.358Z,15.17
2023-03-30T18:59:09.747Z,15.14
2023-03-30T19:01:38.080Z,15.07
2023-03-30T19:04:04.641Z,15.08
2023-03-30T19:06:31.023Z,15.04
2023-03-30T19:08:57.322Z,14.98
2023-03-30T19:11:25.991Z,15.01
2023-03-30T19:13:52.863Z,15.00
2023-03-30T19:16:20.159Z,14.91
2023-03-30T19:18:46.618Z,14.97
2023-03-30T19:21:17.715Z,14.95
2023-03-30T19:23:44.243Z,14.94
2023-03-30T19:26:11.562Z,14.95
2023-03-30T19:28:38.688Z,14.92
2023-03-30T19:31:13.347Z,14.91
2023-03-30T19:33:40.457Z,14.90
2023-03-30T19:36:07.293Z,14.85
2023-03-30T19:38:33.792Z,14.80
2023-03-30T19:41:01.961Z,14.71
2023-03-30T19:43:28.707Z,14.70
2023-03-30T19:45:55.269Z,14.72
2023-03-30T19:48:21.831Z,14.68
2023-03-30T19:50:49.053Z,14.69
2023-03-30T19:53:15.688Z,14.64
2023-03-30T19:55:46.142Z,14.50
2023-03-30T19:58:13.444Z,14.50
2023-03-30T20:00:43.313Z,14.40
2023-03-30T20:03:12.167Z,14.32
2023-03-30T20:05:38.931Z,14.33
2023-03-30T20:08:17.039Z,14.27
2023-03-30T20:10:49.518Z,14.20
2023-03-30T20:13:16.973Z,14.16
2023-03-30T20:15:45.290Z,14.20
2023-03-30T20:18:11.734Z,14.25
2023-03-30T20:20:38.399Z,14.26
2023-03-30T20:23:04.783Z,14.15
2023-03-30T20:25:31.126Z,14.18
2023-03-30T20:27:57.599Z,14.23
2023-03-30T20:30:23.998Z,14.11
2023-03-30T20:33:04.407Z,14.09
2023-03-30T20:35:36.307Z,14.02
2023-03-30T20:38:04.468Z,13.99
2023-03-30T20:40:31.796Z,14.05
2023-03-30T20:43:03.050Z,14.05
2023-03-30T20:45:30.812Z,14.01
2023-03-30T20:47:57.498Z,14.01
2023-03-30T20:50:23.953Z,13.97
2023-03-30T20:52:52.691Z,14.00
2023-03-30T20:55:19.139Z,13.91
2023-03-30T20:57:45.527Z,13.91
2023-03-30T21:00:12.662Z,13.86
2023-03-30T21:02:39.107Z,13.84
2023-03-30T21:05:06.060Z,13.78
2023-03-30T21:07:33.787Z,13.68
2023-03-30T21:10:00.266Z,13.56
2023-03-30T21:12:27.131Z,13.51
2023-03-30T21:14:53.543Z,13.46
2023-03-30T21:17:19.924Z,13.47
2023-03-30T21:19:46.298Z,13.39
2023-03-30T21:22:12.778Z,13.42
2023-03-30T21:24:39.090Z,13.41
2023-03-30T21:27:05.658Z,13.38
2023-03-30T21:29:32.363Z,13.34
2023-03-30T21:31:58.720Z,13.24
2023-03-30T21:34:25.261Z,13.22
2023-03-30T21:36:52.068Z,13.26
2023-03-30T21:39:19.106Z,13.27
2023-03-30T21:41:45.756Z,13.29
2023-03-30T21:44:12.494Z,13.29
2023-03-30T21:46:38.931Z,13.36
2023-03-30T21:49:05.406Z,13.32
2023-03-30T21:51:31.940Z,13.34
2023-03-30T21:53:58.872Z,13.30
2023-03-30T21:56:28.746Z,13.30
2023-03-30T21:58:55.176Z,13.25
2023-03-30T22:01:24.053Z,13.29
2023-03-30T22:03:51.238Z,13.24
2023-03-30T22:06:18.658Z,13.24
2023-03-30T22:08:45.976Z,13.27
2023-03-30T22:11:15.306Z,13.32
2023-03-30T22:13:42.022Z,13.30
2023-03-30T22:16:13.139Z,13.28
2023-03-30T22:18:40.625Z,13.35
2023-03-30T22:21:09.029Z,13.38
2023-03-30T22:23:35.430Z,13.35
2023-03-30T22:26:02.083Z,13.33
2023-03-30T22:28:28.636Z,13.23
2023-03-30T22:30:55.406Z,13.23
2023-03-30T22:33:21.747Z,13.26
2023-03-30T22:35:49.361Z,13.35
2023-03-30T22:38:16.340Z,13.33
2023-03-30T22:40:42.767Z,13.28
2023-03-30T22:43:10.797Z,13.25
2023-03-30T22:45:37.910Z,13.28
2023-03-30T22:48:04.868Z,13.29
2023-03-30T22:50:31.566Z,13.28
2023-03-30T22:52:57.894Z,13.27
2023-03-30T22:55:25.550Z,13.23
2023-03-30T22:57:53.215Z,13.18
2023-03-30T23:00:20.941Z,13.18
2023-03-30T23:02:49.024Z,13.14
2023-03-30T23:05:16.018Z,13.16
2023-03-30T23:07:44.129Z,13.17
2023-03-30T23:10:15.333Z,13.19
2023-03-30T23:12:42.933Z,13.09
2023-03-30T23:15:10.646Z,13.08
2023-03-30T23:17:37.512Z,13.10
2023-03-30T23:20:05.446Z,13.08
2023-03-30T23:22:31.907Z,13.06
2023-03-30T23:24:58.862Z,13.04
2023-03-30T23:27:25.519Z,12.93
2023-03-30T23:29:52.768Z,12.89
2023-03-30T23:32:19.326Z,12.89
2023-03-30T23:34:46.565Z,12.93
2023-03-30T23:37:13.252Z,12.92
2023-03-30T23:39:40.073Z,12.83
2023-03-30T23:42:06.966Z,12.82
2023-03-30T23:44:33.998Z,12.85
2023-03-30T23:47:00.831Z,12.84
2023-03-30T23:49:27.253Z,12.85
2023-03-30T23:51:53.862Z,12.87
2023-03-30T23:54:21.161Z,12.87
2023-03-30T23:56:48.809Z,12.86
2023-03-30T23:59:15.407Z,12.87
